createdAt,value
2023-04-10T00:02:00.624Z,100.00
2023-04-10T00:04:28.513Z,100.00
2023-04-10T00:06:55.626Z,100.00
2023-04-10T00:09:22.223Z,100.00
2023-04-10T00:11:48.845Z,100.00
2023-04-10T00:14:15.374Z,100.00
2023-04-10T00:16:42.006Z,100.00
2023-04-10T00:19:08.803Z,100.00
2023-04-10T00:21:35.348Z,100.00
2023-04-10T00:24:01.950Z,100.00
2023-04-10T00:26:28.502Z,100.00
2023-04-10T00:28:55.290Z,100.00
2023-04-10T00:31:21.981Z,100.00
2023-04-10T00:33:48.662Z,100.00
2023-04-10T00:36:16.003Z,100.00
2023-04-10T00:38:42.633Z,100.00
2023-04-10T00:41:09.197Z,100.00
2023-04-10T00:43:35.893Z,100.00
2023-04-10T00:46:02.712Z,100.00
2023-04-10T00:48:29.694Z,100.00
2023-04-10T00:50:56.276Z,100.00
2023-04-10T00:53:23.185Z,100.00
2023-04-10T00:55:50.503Z,100.00
2023-04-10T00:58:17.136Z,100.00
2023-04-10T01:00:43.764Z,100.00
2023-04-10T01:03:13.283Z,100.00
2023-04-10T01:05:51.624Z,100.00
2023-04-10T01:08:23.044Z,100.00
2023-04-10T01:11:02.577Z,100.00
2023-04-10T01:14:00.350Z,100.00
2023-04-10T01:16:31.570Z,100.00
2023-04-10T01:19:23.567Z,100.00
2023-04-10T01:21:52.833Z,100.00
2023-04-10T01:25:01.029Z,100.00
2023-04-10T01:27:33.511Z,100.00
2023-04-10T01:30:02.741Z,100.00
2023-04-10T01:32:30.906Z,100.00
2023-04-10T01:35:03.633Z,100.00
2023-04-10T01:37:32.170Z,100.00
2023-04-10T01:40:04.299Z,100.00
2023-04-10T01:42:34.178Z,100.00
2023-04-10T01:45:02.012Z,100.00
2023-04-10T01:47:29.114Z,100.00
2023-04-10T01:49:57.339Z,100.00
2023-04-10T01:52:25.001Z,100.00
2023-04-10T01:54:53.387Z,100.00
2023-04-10T01:57:20.468Z,100.00
2023-04-10T01:59:47.355Z,100.00
2023-04-10T02:02:14.053Z,100.00
2023-04-10T02:04:40.842Z,100.00
2023-04-10T02:07:12.279Z,100.00
2023-04-10T02:09:57.687Z,100.00
2023-04-10T02:12:36.944Z,100.00
2023-04-10T02:15:06.496Z,100.00
2023-04-10T02:17:34.854Z,100.00
2023-04-10T02:20:04.197Z,100.00
2023-04-10T02:22:31.086Z,100.00
2023-04-10T02:24:58.788Z,100.00
2023-04-10T02:27:29.585Z,100.00
2023-04-10T02:29:56.887Z,100.00
2023-04-10T02:32:24.268Z,100.00
2023-04-10T02:34:50.786Z,100.00
2023-04-10T02:37:17.500Z,100.00
2023-04-10T02:39:44.088Z,100.00
2023-04-10T02:42:11.171Z,100.00
2023-04-10T02:44:39.465Z,100.00
2023-04-10T02:47:07.266Z,100.00
2023-04-10T02:49:35.069Z,100.00
2023-04-10T02:52:02.284Z,100.00
2023-04-10T02:54:28.955Z,100.00
2023-04-10T02:56:57.711Z,100.00
2023-04-10T02:59:24.387Z,100.00
2023-04-10T03:01:52.409Z,100.00
2023-04-10T03:04:19.629Z,100.00
2023-04-10T03:06:46.430Z,100.00
2023-04-10T03:09:13.021Z,100.00
2023-04-10T03:11:39.616Z,100.00
2023-04-10T03:14:06.477Z,100.00
2023-04-10T03:16:33.136Z,100.00
2023-04-10T03:18:59.948Z,100.00
2023-04-10T03:21:27.447Z,100.00
2023-04-10T03:23:54.251Z,100.00
2023-04-10T03:26:21.263Z,100.00
2023-04-10T03:28:47.894Z,100.00
2023-04-10T03:31:14.520Z,100.00
2023-04-10T03:33:41.350Z,100.00
2023-04-10T03:36:08.714Z,100.00
2023-04-10T03:38:35.829Z,100.00
2023-04-10T03:41:02.288Z,100.00
2023-04-10T03:43:31.344Z,100.00
2023-04-10T03:45:58.217Z,100.00
2023-04-10T03:48:28.262Z,100.00
2023-04-10T03:50:55.530Z,100.00
2023-04-10T03:53:22.150Z,100.00
2023-04-10T03:55:48.675Z,100.00
2023-04-10T03:58:15.424Z,100.00
2023-04-10T04:00:42.046Z,100.00
2023-04-10T04:03:08.882Z,100.00
2023-04-10T04:05:35.746Z,100.00
2023-04-10T04:08:03.938Z,100.00
2023-04-10T04:10:30.564Z,100.00
2023-04-10T04:12:57.142Z,100.00
2023-04-10T04:15:23.995Z,100.00
2023-04-10T04:17:51.234Z,100.00
2023-04-10T04:20:17.906Z,100.00
2023-04-10T04:22:44.507Z,100.00
2023-04-10T04:25:11.783Z,100.00
2023-04-10T04:27:38.610Z,100.00
2023-04-10T04:30:06.465Z,100.00
2023-04-10T04:32:33.265Z,100.00
2023-04-10T04:34:59.932Z,100.00
2023-04-10T04:37:26.567Z,100.00
2023-04-10T04:39:53.115Z,100.00
2023-04-10T04:42:19.716Z,100.00
2023-04-10T04:44:46.348Z,100.00
2023-04-10T04:47:12.918Z,100.00
2023-04-10T04:49:39.499Z,100.00
2023-04-10T04:52:06.116Z,100.00
2023-04-10T04:54:32.688Z,100.00
2023-04-10T04:56:59.275Z,100.00
2023-04-10T04:59:25.872Z,100.00
2023-04-10T05:01:52.696Z,100.00
2023-04-10T05:04:20.709Z,100.00
2023-04-10T05:06:47.420Z,100.00
2023-04-10T05:09:13.981Z,100.00
2023-04-10T05:11:41.073Z,100.00
2023-04-10T05:14:07.715Z,100.00
2023-04-10T05:16:34.281Z,100.00
2023-04-10T05:19:00.854Z,100.00
2023-04-10T05:21:27.622Z,100.00
2023-04-10T05:23:54.263Z,100.00
2023-04-10T05:26:21.003Z,100.00
2023-04-10T05:28:47.660Z,100.00
2023-04-10T05:31:14.277Z,100.00
2023-04-10T05:33:40.989Z,100.00
2023-04-10T05:36:08.033Z,100.00
2023-04-10T05:38:34.623Z,100.00
2023-04-10T05:41:01.178Z,100.00
2023-04-10T05:43:27.807Z,100.00
2023-04-10T05:45:54.460Z,100.00
2023-04-10T05:48:21.183Z,100.00
2023-04-10T05:50:47.739Z,100.00
2023-04-10T05:53:14.932Z,100.00
2023-04-10T05:55:41.528Z,100.00
2023-04-10T05:58:08.106Z,100.00
2023-04-10T06:00:34.689Z,100.00
2023-04-10T06:03:01.712Z,100.00
2023-04-10T06:05:28.442Z,100.00
2023-04-10T06:07:57.575Z,100.00
2023-04-10T06:10:24.852Z,100.00
2023-04-10T06:12:51.405Z,100.00
2023-04-10T06:15:18.111Z,100.00
2023-04-10T06:17:44.794Z,100.00
2023-04-10T06:20:11.734Z,100.00
2023-04-10T06:22:38.351Z,100.00
2023-04-10T06:25:05.541Z,100.00
2023-04-10T06:27:33.892Z,100.00
2023-04-10T06:30:00.481Z,100.00
2023-04-10T06:32:27.096Z,100.00
2023-04-10T06:34:53.632Z,100.00
2023-04-10T06:37:20.216Z,98.98
2023-04-10T06:39:46.809Z,98.63
2023-04-10T06:42:13.412Z,99.26
2023-04-10T06:44:39.995Z,99.36
2023-04-10T06:47:06.937Z,96.24
2023-04-10T06:49:33.689Z,96.50
2023-04-10T06:52:00.287Z,96.95
2023-04-10T06:54:26.874Z,96.85
2023-04-10T06:56:58.714Z,93.84
2023-04-10T06:59:25.671Z,89.78
2023-04-10T07:01:52.262Z,84.87
2023-04-10T07:04:19.016Z,82.84
2023-04-10T07:06:45.628Z,78.20
2023-04-10T07:09:12.279Z,75.61
2023-04-10T07:11:38.893Z,72.39
2023-04-10T07:14:05.450Z,69.52
2023-04-10T07:16:32.766Z,65.64
2023-04-10T07:18:59.286Z,65.52
2023-04-10T07:21:27.208Z,67.40
2023-04-10T07:23:53.891Z,61.43
2023-04-10T07:26:20.740Z,59.11
2023-04-10T07:28:47.332Z,56.94
2023-04-10T07:31:14.217Z,58.18
2023-04-10T07:33:40.952Z,56.51
2023-04-10T07:36:08.246Z,58.14
2023-04-10T07:38:34.883Z,57.49
2023-04-10T07:41:01.567Z,59.91
2023-04-10T07:43:28.096Z,60.47
2023-04-10T07:45:56.066Z,59.72
2023-04-10T07:48:22.908Z,58.17
2023-04-10T07:50:49.653Z,59.56
2023-04-10T07:53:16.286Z,57.20
2023-04-10T07:55:44.645Z,55.27
2023-04-10T07:58:11.305Z,58.18
2023-04-10T08:00:37.911Z,62.13
2023-04-10T08:03:05.977Z,59.66
2023-04-10T08:05:33.201Z,60.68
2023-04-10T08:07:59.998Z,55.58
2023-04-10T08:10:26.813Z,57.35
2023-04-10T08:12:53.642Z,57.43
2023-04-10T08:15:20.591Z,56.47
2023-04-10T08:17:47.489Z,56.31
2023-04-10T08:20:14.380Z,58.64
2023-04-10T08:22:41.240Z,54.53
2023-04-10T08:25:08.312Z,52.99
2023-04-10T08:27:35.101Z,52.40
2023-04-10T08:30:01.958Z,55.46
2023-04-10T08:32:29.354Z,53.05
2023-04-10T08:34:56.161Z,54.14
2023-04-10T08:37:22.792Z,55.69
2023-04-10T08:39:49.349Z,54.61
2023-04-10T08:42:16.100Z,56.04
2023-04-10T08:44:42.634Z,54.88
2023-04-10T08:47:10.377Z,55.41
2023-04-10T08:49:39.694Z,56.43
2023-04-10T08:52:09.677Z,54.84
2023-04-10T08:54:38.977Z,60.28
2023-04-10T08:57:09.763Z,61.55
2023-04-10T08:59:37.384Z,57.12
2023-04-10T09:02:04.022Z,56.59
2023-04-10T09:04:31.874Z,52.49
2023-04-10T09:06:58.455Z,55.83
2023-04-10T09:09:24.978Z,50.51
2023-04-10T09:12:00.478Z,51.62
2023-04-10T09:14:32.145Z,50.82
2023-04-10T09:17:24.192Z,53.43
2023-04-10T09:19:55.928Z,55.24
2023-04-10T09:22:31.074Z,50.39
2023-04-10T09:24:59.491Z,52.60
2023-04-10T09:27:35.178Z,54.37
2023-04-10T09:30:03.257Z,51.39
2023-04-10T09:32:36.062Z,52.80
2023-04-10T09:35:02.898Z,48.49
2023-04-10T09:37:33.115Z,51.23
2023-04-10T09:39:59.743Z,50.03
2023-04-10T09:42:37.327Z,50.14
2023-04-10T09:45:05.217Z,54.47
2023-04-10T09:47:33.263Z,54.27
2023-04-10T09:50:01.188Z,52.39
2023-04-10T09:52:29.883Z,49.55
2023-04-10T09:54:58.232Z,53.52
2023-04-10T09:57:27.697Z,51.53
2023-04-10T09:59:59.132Z,53.06
2023-04-10T10:02:28.854Z,50.85
2023-04-10T10:04:57.269Z,50.06
2023-04-10T10:07:24.388Z,53.49
2023-04-10T10:09:52.874Z,51.13
2023-04-10T10:12:24.344Z,56.29
2023-04-10T10:15:01.235Z,51.82
2023-04-10T10:17:38.393Z,49.81
2023-04-10T10:20:07.955Z,50.38
2023-04-10T10:22:35.634Z,49.70
2023-04-10T10:25:03.268Z,53.89
2023-04-10T10:27:37.718Z,50.44
2023-04-10T10:30:20.289Z,50.36
2023-04-10T10:32:52.675Z,52.19
2023-04-10T10:35:19.981Z,50.37
2023-04-10T10:37:47.788Z,52.17
2023-04-10T10:40:31.066Z,52.81
2023-04-10T10:42:57.633Z,48.87
2023-04-10T10:45:31.358Z,52.13
2023-04-10T10:47:58.030Z,47.91
2023-04-10T10:50:24.990Z,47.30
2023-04-10T10:52:54.052Z,48.84
2023-04-10T10:55:27.501Z,50.86
2023-04-10T10:57:56.227Z,48.77
2023-04-10T11:00:27.166Z,50.24
2023-04-10T11:03:08.997Z,51.09
2023-04-10T11:05:55.601Z,51.05
2023-04-10T11:08:44.501Z,48.93
2023-04-10T11:11:13.005Z,51.71
2023-04-10T11:13:41.815Z,49.49
2023-04-10T11:16:12.896Z,49.54
2023-04-10T11:18:45.680Z,51.86
2023-04-10T11:21:16.760Z,49.89
2023-04-10T11:23:52.840Z,50.66
2023-04-10T11:26:43.624Z,52.75
2023-04-10T11:29:14.181Z,48.89
2023-04-10T11:31:40.857Z,51.47
2023-04-10T11:34:08.385Z,49.86
2023-04-10T11:36:39.051Z,51.06
2023-04-10T11:39:08.921Z,50.21
2023-04-10T11:41:40.140Z,52.33
2023-04-10T11:44:08.823Z,49.47
2023-04-10T11:46:40.433Z,53.39
2023-04-10T11:49:09.859Z,47.28
2023-04-10T11:51:40.815Z,49.65
2023-04-10T11:54:12.272Z,48.81
2023-04-10T11:56:41.142Z,46.52
2023-04-10T11:59:11.122Z,46.65
2023-04-10T12:01:39.850Z,46.04
2023-04-10T12:04:21.461Z,45.47
2023-04-10T12:06:53.399Z,48.14
2023-04-10T12:09:21.394Z,45.65
2023-04-10T12:11:59.823Z,46.82
2023-04-10T12:14:44.631Z,48.66
2023-04-10T12:17:12.970Z,47.72
2023-04-10T12:19:40.327Z,47.82
2023-04-10T12:22:07.798Z,48.18
2023-04-10T12:24:42.056Z,48.71
2023-04-10T12:27:19.130Z,47.80
2023-04-10T12:29:47.035Z,47.26
2023-04-10T12:32:13.854Z,48.93
2023-04-10T12:34:40.949Z,50.72
2023-04-10T12:37:09.776Z,46.13
2023-04-10T12:39:36.561Z,50.87
2023-04-10T12:42:13.401Z,46.04
2023-04-10T12:44:59.823Z,48.06
2023-04-10T12:47:28.345Z,45.33
2023-04-10T12:50:10.847Z,47.52
2023-04-10T12:52:40.440Z,46.76
2023-04-10T12:55:13.317Z,47.40
2023-04-10T12:57:41.468Z,46.45
2023-04-10T13:00:11.083Z,46.58
2023-04-10T13:02:38.600Z,45.26
2023-04-10T13:05:06.765Z,46.15
2023-04-10T13:07:33.541Z,46.67
2023-04-10T13:10:00.463Z,46.31
2023-04-10T13:12:27.218Z,46.68
2023-04-10T13:14:54.638Z,45.46
2023-04-10T13:17:21.808Z,45.90
2023-04-10T13:19:48.786Z,47.06
2023-04-10T13:22:15.518Z,45.55
2023-04-10T13:24:43.597Z,47.33
2023-04-10T13:27:11.006Z,45.81
2023-04-10T13:29:40.257Z,45.33
2023-04-10T13:32:07.530Z,48.61
2023-04-10T13:34:34.482Z,45.96
2023-04-10T13:37:01.672Z,48.55
2023-04-10T13:39:29.814Z,48.20
2023-04-10T13:41:56.838Z,46.37
2023-04-10T13:44:23.675Z,48.12
2023-04-10T13:46:52.025Z,50.08
2023-04-10T13:49:20.379Z,47.71
2023-04-10T13:51:47.462Z,46.98
2023-04-10T13:54:14.392Z,48.34
2023-04-10T13:56:41.398Z,49.26
2023-04-10T13:59:08.015Z,47.94
2023-04-10T14:01:34.681Z,49.37
2023-04-10T14:04:01.293Z,47.43
2023-04-10T14:06:28.286Z,48.19
2023-04-10T14:08:55.042Z,48.88
2023-04-10T14:11:22.073Z,49.42
2023-04-10T14:13:49.100Z,48.72
2023-04-10T14:16:15.615Z,52.48
2023-04-10T14:18:42.216Z,50.30
2023-04-10T14:21:08.851Z,48.58
2023-04-10T14:23:35.551Z,49.90
2023-04-10T14:26:02.269Z,49.77
2023-04-10T14:28:29.289Z,49.33
2023-04-10T14:30:55.972Z,48.22
2023-04-10T14:33:22.614Z,47.99
2023-04-10T14:35:49.272Z,49.38
2023-04-10T14:38:16.210Z,47.99
2023-04-10T14:40:43.680Z,50.16
2023-04-10T14:43:10.082Z,52.02
2023-04-10T14:45:36.712Z,50.97
2023-04-10T14:48:03.667Z,51.14
2023-04-10T14:50:33.550Z,50.78
2023-04-10T14:53:00.697Z,50.97
2023-04-10T14:55:29.436Z,50.55
2023-04-10T14:57:58.222Z,52.82
2023-04-10T15:00:25.536Z,51.09
2023-04-10T15:02:52.321Z,50.67
2023-04-10T15:05:19.280Z,50.79
2023-04-10T15:07:45.929Z,51.49
2023-04-10T15:10:12.594Z,53.38
2023-04-10T15:12:39.367Z,51.22
2023-04-10T15:15:07.020Z,51.92
2023-04-10T15:17:33.973Z,51.58
2023-04-10T15:20:00.808Z,51.54
2023-04-10T15:22:29.247Z,52.19
2023-04-10T15:24:55.859Z,52.20
2023-04-10T15:27:22.449Z,52.00
2023-04-10T15:29:49.102Z,52.91
2023-04-10T15:32:15.791Z,53.96
2023-04-10T15:34:42.412Z,54.11
2023-04-10T15:37:08.958Z,52.64
2023-04-10T15:39:37.133Z,52.99
2023-04-10T15:42:06.041Z,52.92
2023-04-10T15:44:32.899Z,54.64
2023-04-10T15:46:59.479Z,53.54
2023-04-10T15:49:36.079Z,54.08
2023-04-10T15:52:05.119Z,55.19
2023-04-10T15:54:33.872Z,56.01
2023-04-10T15:57:01.749Z,55.94
2023-04-10T15:59:28.401Z,56.83
2023-04-10T16:01:55.067Z,56.78
2023-04-10T16:04:21.870Z,57.66
2023-04-10T16:06:48.557Z,57.87
2023-04-10T16:09:25.494Z,58.64
2023-04-10T16:11:53.914Z,57.99
2023-04-10T16:14:20.803Z,58.68
2023-04-10T16:16:47.395Z,59.06
2023-04-10T16:19:14.065Z,59.50
2023-04-10T16:21:40.714Z,59.97
2023-04-10T16:24:07.518Z,59.25
2023-04-10T16:26:34.336Z,59.98
2023-04-10T16:29:00.994Z,60.22
2023-04-10T16:31:27.639Z,60.69
2023-04-10T16:33:54.252Z,60.14
2023-04-10T16:36:20.921Z,60.24
2023-04-10T16:38:49.725Z,61.09
2023-04-10T16:41:20.866Z,59.78
2023-04-10T16:43:47.737Z,60.67
2023-04-10T16:46:14.478Z,59.86
2023-04-10T16:48:41.205Z,62.20
2023-04-10T16:51:15.903Z,60.54
2023-04-10T16:53:42.616Z,61.65
2023-04-10T16:56:09.312Z,60.21
2023-04-10T16:58:37.263Z,61.65
2023-04-10T17:01:26.334Z,61.25
2023-04-10T17:03:53.825Z,60.10
2023-04-10T17:06:20.623Z,59.80
2023-04-10T17:08:47.571Z,60.41
2023-04-10T17:11:14.172Z,60.24
2023-04-10T17:13:41.517Z,59.50
2023-04-10T17:16:09.332Z,58.77
2023-04-10T17:18:35.933Z,59.26
2023-04-10T17:21:02.514Z,59.15
2023-04-10T17:23:29.683Z,59.06
2023-04-10T17:25:56.382Z,60.16
2023-04-10T17:28:23.114Z,61.28
2023-04-10T17:30:49.654Z,60.61
2023-04-10T17:33:16.278Z,60.60
2023-04-10T17:35:43.106Z,63.28
2023-04-10T17:38:09.617Z,63.36
2023-04-10T17:40:37.089Z,64.56
2023-04-10T17:43:03.936Z,65.14
2023-04-10T17:45:30.635Z,65.87
2023-04-10T17:47:57.325Z,67.54
2023-04-10T17:50:24.035Z,66.42
2023-04-10T17:52:50.542Z,67.36
2023-04-10T17:55:21.232Z,69.61
2023-04-10T17:57:48.921Z,71.06
2023-04-10T18:00:16.944Z,70.73
2023-04-10T18:02:45.544Z,71.89
2023-04-10T18:05:12.200Z,72.59
2023-04-10T18:07:39.227Z,72.54
2023-04-10T18:10:09.798Z,75.03
2023-04-10T18:12:37.715Z,76.48
2023-04-10T18:15:04.891Z,75.94
2023-04-10T18:17:31.602Z,75.81
2023-04-10T18:19:58.146Z,74.59
2023-04-10T18:22:24.961Z,75.75
2023-04-10T18:24:51.624Z,73.95
2023-04-10T18:27:18.164Z,72.95
2023-04-10T18:29:45.683Z,74.14
2023-04-10T18:32:12.642Z,73.72
2023-04-10T18:34:39.437Z,74.80
2023-04-10T18:37:07.492Z,74.31
2023-04-10T18:39:38.220Z,74.93
2023-04-10T18:42:07.514Z,76.05
2023-04-10T18:44:34.883Z,73.51
2023-04-10T18:47:04.879Z,72.99
2023-04-10T18:49:32.102Z,73.44
2023-04-10T18:51:58.924Z,72.01
2023-04-10T18:54:27.498Z,69.28
2023-04-10T18:56:54.398Z,70.82
2023-04-10T18:59:20.946Z,70.21
2023-04-10T19:01:47.572Z,72.55
2023-04-10T19:04:14.726Z,73.69
2023-04-10T19:06:43.656Z,73.58
2023-04-10T19:09:10.306Z,72.73
2023-04-10T19:11:37.064Z,72.99
2023-04-10T19:14:03.723Z,74.44
2023-04-10T19:16:30.534Z,73.63
2023-04-10T19:18:57.448Z,74.83
2023-04-10T19:21:24.281Z,74.10
2023-04-10T19:23:50.916Z,74.39
2023-04-10T19:26:19.951Z,74.54
2023-04-10T19:28:46.832Z,75.65
2023-04-10T19:31:13.603Z,75.58
2023-04-10T19:33:40.295Z,77.10
2023-04-10T19:36:08.510Z,77.83
2023-04-10T19:38:35.377Z,78.34
2023-04-10T19:41:01.903Z,78.55
2023-04-10T19:43:28.471Z,78.68
2023-04-10T19:45:56.246Z,79.84
2023-04-10T19:48:23.487Z,83.03
2023-04-10T19:50:50.092Z,83.59
2023-04-10T19:53:16.696Z,83.97
2023-04-10T19:55:44.431Z,84.37
2023-04-10T19:58:24.959Z,87.40
2023-04-10T20:01:06.816Z,90.28
2023-04-10T20:03:33.508Z,92.72
2023-04-10T20:06:00.767Z,94.62
2023-04-10T20:08:27.578Z,97.31
2023-04-10T20:10:55.161Z,99.25
2023-04-10T20:13:23.207Z,100.00
2023-04-10T20:15:50.109Z,100.00
2023-04-10T20:18:17.337Z,100.00
2023-04-10T20:20:44.825Z,100.00
2023-04-10T20:23:11.687Z,100.00
2023-04-10T20:25:38.929Z,100.00
2023-04-10T20:28:05.490Z,100.00
2023-04-10T20:30:32.034Z,100.00
2023-04-10T20:32:58.679Z,100.00
2023-04-10T20:35:26.058Z,100.00
2023-04-10T20:37:52.611Z,100.00
2023-04-10T20:40:19.436Z,100.00
2023-04-10T20:42:46.291Z,100.00
2023-04-10T20:45:13.074Z,100.00
2023-04-10T20:47:39.984Z,100.00
2023-04-10T20:50:07.642Z,100.00
2023-04-10T20:52:34.227Z,100.00
2023-04-10T20:55:00.930Z,100.00
2023-04-10T20:57:27.625Z,100.00
2023-04-10T20:59:54.197Z,100.00
2023-04-10T21:02:21.999Z,100.00
2023-04-10T21:04:50.366Z,100.00
2023-04-10T21:07:16.930Z,100.00
2023-04-10T21:09:43.654Z,100.00
2023-04-10T21:12:10.219Z,100.00
2023-04-10T21:14:36.801Z,100.00
2023-04-10T21:17:03.430Z,100.00
2023-04-10T21:19:29.981Z,100.00
2023-04-10T21:21:57.282Z,100.00
2023-04-10T21:24:23.967Z,100.00
2023-04-10T21:26:50.756Z,100.00
2023-04-10T21:29:17.304Z,100.00
2023-04-10T21:31:43.922Z,100.00
2023-04-10T21:34:10.607Z,100.00
2023-04-10T21:36:38.750Z,100.00
2023-04-10T21:39:09.265Z,100.00
2023-04-10T21:41:37.075Z,100.00
2023-04-10T21:44:04.178Z,100.00
2023-04-10T21:46:31.093Z,100.00
2023-04-10T21:48:57.845Z,100.00
2023-04-10T21:51:26.736Z,100.00
2023-04-10T21:53:53.453Z,100.00
2023-04-10T21:56:20.694Z,100.00
2023-04-10T21:58:47.257Z,100.00
2023-04-10T22:01:13.921Z,100.00
2023-04-10T22:03:41.573Z,100.00
2023-04-10T22:06:09.080Z,100.00
2023-04-10T22:08:38.274Z,100.00
2023-04-10T22:11:06.062Z,100.00
2023-04-10T22:13:32.921Z,100.00
2023-04-10T22:16:01.946Z,100.00
2023-04-10T22:18:28.908Z,100.00
2023-04-10T22:20:55.509Z,100.00
2023-04-10T22:23:22.250Z,100.00
2023-04-10T22:25:48.820Z,100.00
2023-04-10T22:28:15.775Z,100.00
2023-04-10T22:30:42.426Z,100.00
2023-04-10T22:33:11.891Z,100.00
2023-04-10T22:35:38.529Z,100.00
2023-04-10T22:38:05.278Z,100.00
2023-04-10T22:40:31.851Z,100.00
2023-04-10T22:42:58.448Z,100.00
2023-04-10T22:45:25.008Z,100.00
2023-04-10T22:47:51.569Z,100.00
2023-04-10T22:50:18.399Z,100.00
2023-04-10T22:52:44.989Z,100.00
2023-04-10T22:55:11.707Z,100.00
2023-04-10T22:57:38.424Z,100.00
2023-04-10T23:00:05.503Z,100.00
2023-04-10T23:02:32.128Z,100.00
2023-04-10T23:04:58.738Z,100.00
2023-04-10T23:07:27.808Z,100.00
2023-04-10T23:09:54.440Z,100.00
2023-04-10T23:12:21.009Z,100.00
2023-04-10T23:14:47.595Z,100.00
2023-04-10T23:17:14.148Z,100.00
2023-04-10T23:19:40.808Z,100.00
2023-04-10T23:22:07.328Z,100.00
2023-04-10T23:24:33.924Z,100.00
2023-04-10T23:27:00.574Z,100.00
2023-04-10T23:29:27.125Z,100.00
2023-04-10T23:31:53.649Z,100.00
2023-04-10T23:34:21.170Z,100.00
2023-04-10T23:36:47.701Z,100.00
2023-04-10T23:39:14.380Z,100.00
2023-04-10T23:41:41.061Z,100.00
2023-04-10T23:44:07.653Z,100.00
2023-04-10T23:46:34.291Z,100.00
2023-04-10T23:49:00.897Z,100.00
2023-04-10T23:51:28.053Z,100.00
2023-04-10T23:53:54.590Z,100.00
2023-04-10T23:56:21.649Z,100.00
2023-04-10T23:58:48.172Z,100.00
